createdAt,value
2019-02-18T11:45:36.716Z,8.80
2019-02-18T11:50:31.890Z,8.80
2019-02-18T11:55:27.177Z,8.03
2019-02-18T12:00:22.199Z,7.93
2019-02-18T12:05:17.493Z,11.00
2019-02-18T12:10:13.016Z,12.60
2019-02-18T12:15:09.520Z,8.77
2019-02-18T12:20:05.430Z,10.93
2019-02-18T12:25:00.412Z,7.27
2019-02-18T12:29:56.023Z,6.97
2019-02-18T12:34:50.988Z,6.90
2019-02-18T12:39:46.321Z,10.27
2019-02-18T12:44:41.218Z,6.27
2019-02-18T12:49:36.874Z,8.17
2019-02-18T12:54:31.909Z,8.27
2019-02-18T12:59:28.843Z,8.70
2019-02-18T13:04:23.931Z,8.83
2019-02-18T13:09:19.538Z,8.07
2019-02-18T13:14:14.461Z,7.37
2019-02-18T13:19:09.420Z,8.40
2019-02-18T13:24:04.500Z,7.77
2019-02-18T13:28:59.719Z,6.90
2019-02-18T13:33:54.733Z,7.67
2019-02-18T13:38:50.060Z,7.00
2019-02-18T13:43:45.032Z,7.00
2019-02-18T13:48:40.265Z,13.57
2019-02-18T13:53:35.496Z,6.50
2019-02-18T13:58:31.890Z,10.97
2019-02-18T14:03:27.492Z,8.83
2019-02-18T14:08:22.502Z,7.77
2019-02-18T14:13:17.498Z,7.27
2019-02-18T14:18:12.745Z,7.80
2019-02-18T14:23:16.986Z,12.30
2019-02-18T14:28:11.892Z,9.90
2019-02-18T14:33:07.149Z,9.60
2019-02-18T14:38:02.720Z,7.83
2019-02-18T14:42:58.327Z,7.57
2019-02-18T14:47:53.429Z,8.17
2019-02-18T14:52:48.431Z,8.93
2019-02-18T14:57:43.448Z,11.13
2019-02-18T15:02:38.508Z,9.40
2019-02-18T15:07:48.785Z,8.73
2019-02-18T15:12:43.726Z,8.70
2019-02-18T15:17:38.669Z,9.70
2019-02-18T15:22:33.921Z,10.98
2019-02-18T15:27:28.934Z,10.40
2019-02-18T15:32:24.454Z,7.83
2019-02-18T15:37:19.481Z,7.93
2019-02-18T15:42:15.989Z,8.50
2019-02-18T15:47:11.040Z,10.00
2019-02-18T15:52:07.485Z,11.37
2019-02-18T15:57:02.814Z,21.97
2019-02-18T16:01:58.140Z,11.37
2019-02-18T16:06:53.619Z,7.97
2019-02-18T16:11:48.979Z,11.23
2019-02-18T16:16:45.596Z,11.60
2019-02-18T16:21:40.613Z,14.87
2019-02-18T16:26:36.687Z,13.30
2019-02-18T16:31:31.657Z,10.07
2019-02-18T16:36:27.633Z,12.98
2019-02-18T16:41:22.922Z,12.43
2019-02-18T16:46:18.117Z,11.70
2019-02-18T16:51:14.060Z,12.00
2019-02-18T16:56:09.773Z,14.10
2019-02-18T17:01:05.910Z,12.07
2019-02-18T17:06:01.159Z,19.35
2019-02-18T17:11:02.224Z,14.17
2019-02-18T17:15:57.235Z,15.37
2019-02-18T17:20:52.628Z,15.23
2019-02-18T17:25:47.597Z,21.53
2019-02-18T17:30:43.537Z,21.53
2019-02-18T17:35:38.509Z,17.13
2019-02-18T17:40:33.986Z,23.63
2019-02-18T17:45:29.302Z,16.83
2019-02-18T17:50:24.324Z,13.27
2019-02-18T17:55:26.663Z,14.53
2019-02-18T18:00:30.122Z,20.07
2019-02-18T18:05:25.512Z,12.80
2019-02-18T18:10:20.559Z,26.20
2019-02-18T18:15:15.705Z,21.97
2019-02-18T18:20:11.192Z,23.43
2019-02-18T18:25:06.601Z,17.07
2019-02-18T18:30:02.339Z,20.87
2019-02-18T18:34:57.281Z,17.57
2019-02-18T18:39:52.241Z,14.70
2019-02-18T18:44:47.179Z,14.97
2019-02-18T18:49:42.091Z,18.83
